sensor_id;sensor_type;location;lat;lon;timestamp;P1;durP1;ratioP1;P2;durP2;ratioP2
15110;SDS011;7656;51.954;7.998;2023-03-17T00:00:03;4.90;;;3.40;;
15110;SDS011;7656;51.954;7.998;2023-03-17T00:04:32;5.10;;;3.37;;
15110;SDS011;7656;51.954;7.998;2023-03-17T00:08:53;5.23;;;3.10;;
15110;SDS011;7656;51.954;7.998;2023-03-17T00:13:14;8.30;;;3.10;;
15110;SDS011;7656;51.954;7.998;2023-03-17T00:17:36;4.53;;;3.27;;
15110;SDS011;7656;51.954;7.998;2023-03-17T00:21:58;5.37;;;3.03;;
15110;SDS011;7656;51.954;7.998;2023-03-17T00:26:20;5.70;;;3.13;;
15110;SDS011;7656;51.954;7.998;2023-03-17T00:30:43;2.87;;;2.63;;
15110;SDS011;7656;51.954;7.998;2023-03-17T00:35:22;4.00;;;3.00;;
15110;SDS011;7656;51.954;7.998;2023-03-17T00:39:47;4.20;;;3.27;;
15110;SDS011;7656;51.954;7.998;2023-03-17T00:44:08;3.97;;;3.27;;
15110;SDS011;7656;51.954;7.998;2023-03-17T00:48:31;3.47;;;3.17;;
15110;SDS011;7656;51.954;7.998;2023-03-17T00:52:54;3.13;;;2.83;;
15110;SDS011;7656;51.954;7.998;2023-03-17T00:57:17;3.20;;;2.90;;
15110;SDS011;7656;51.954;7.998;2023-03-17T01:01:38;4.73;;;2.97;;
15110;SDS011;7656;51.954;7.998;2023-03-17T01:06:00;3.07;;;2.57;;
15110;SDS011;7656;51.954;7.998;2023-03-17T01:10:24;3.33;;;3.00;;
15110;SDS011;7656;51.954;7.998;2023-03-17T01:14:48;4.97;;;3.17;;
15110;SDS011;7656;51.954;7.998;2023-03-17T01:19:10;4.97;;;2.93;;
15110;SDS011;7656;51.954;7.998;2023-03-17T01:23:32;4.57;;;3.20;;
15110;SDS011;7656;51.954;7.998;2023-03-17T01:27:54;3.67;;;3.23;;
15110;SDS011;7656;51.954;7.998;2023-03-17T01:32:20;4.53;;;2.63;;
15110;SDS011;7656;51.954;7.998;2023-03-17T01:36:41;4.90;;;2.97;;
15110;SDS011;7656;51.954;7.998;2023-03-17T01:41:02;3.40;;;2.70;;
15110;SDS011;7656;51.954;7.998;2023-03-17T01:50:25;3.50;;;3.20;;
15110;SDS011;7656;51.954;7.998;2023-03-17T01:55:00;3.30;;;3.00;;
15110;SDS011;7656;51.954;7.998;2023-03-17T01:59:28;4.33;;;3.77;;
15110;SDS011;7656;51.954;7.998;2023-03-17T02:03:54;3.43;;;2.97;;
15110;SDS011;7656;51.954;7.998;2023-03-17T02:08:16;2.90;;;2.53;;
15110;SDS011;7656;51.954;7.998;2023-03-17T02:12:37;4.60;;;2.93;;
15110;SDS011;7656;51.954;7.998;2023-03-17T02:17:02;3.70;;;3.00;;
15110;SDS011;7656;51.954;7.998;2023-03-17T02:21:28;3.53;;;2.90;;
15110;SDS011;7656;51.954;7.998;2023-03-17T02:25:53;5.27;;;2.60;;
15110;SDS011;7656;51.954;7.998;2023-03-17T02:30:17;2.50;;;2.30;;
15110;SDS011;7656;51.954;7.998;2023-03-17T02:34:41;3.40;;;2.57;;
15110;SDS011;7656;51.954;7.998;2023-03-17T02:39:02;3.10;;;2.80;;
15110;SDS011;7656;51.954;7.998;2023-03-17T02:43:24;2.80;;;2.50;;
15110;SDS011;7656;51.954;7.998;2023-03-17T02:47:49;3.13;;;2.40;;
15110;SDS011;7656;51.954;7.998;2023-03-17T02:52:12;4.27;;;2.67;;
15110;SDS011;7656;51.954;7.998;2023-03-17T02:56:33;3.20;;;2.90;;
15110;SDS011;7656;51.954;7.998;2023-03-17T03:00:54;6.83;;;3.20;;
15110;SDS011;7656;51.954;7.998;2023-03-17T03:05:15;4.03;;;3.30;;
15110;SDS011;7656;51.954;7.998;2023-03-17T03:09:37;5.63;;;3.40;;
15110;SDS011;7656;51.954;7.998;2023-03-17T03:13:58;3.93;;;2.70;;
15110;SDS011;7656;51.954;7.998;2023-03-17T03:18:20;3.93;;;3.30;;
15110;SDS011;7656;51.954;7.998;2023-03-17T03:22:41;5.07;;;3.23;;
15110;SDS011;7656;51.954;7.998;2023-03-17T03:27:02;4.00;;;3.07;;
15110;SDS011;7656;51.954;7.998;2023-03-17T03:31:23;4.70;;;3.30;;
15110;SDS011;7656;51.954;7.998;2023-03-17T03:35:45;2.97;;;2.67;;
15110;SDS011;7656;51.954;7.998;2023-03-17T03:40:06;4.77;;;2.80;;
15110;SDS011;7656;51.954;7.998;2023-03-17T03:44:28;4.67;;;2.80;;
15110;SDS011;7656;51.954;7.998;2023-03-17T03:48:49;3.50;;;3.00;;
15110;SDS011;7656;51.954;7.998;2023-03-17T03:53:10;7.17;;;3.37;;
15110;SDS011;7656;51.954;7.998;2023-03-17T03:57:32;4.53;;;3.20;;
15110;SDS011;7656;51.954;7.998;2023-03-17T04:01:53;4.43;;;2.47;;
15110;SDS011;7656;51.954;7.998;2023-03-17T04:06:14;3.13;;;2.83;;
15110;SDS011;7656;51.954;7.998;2023-03-17T04:10:36;6.63;;;3.53;;
15110;SDS011;7656;51.954;7.998;2023-03-17T04:14:57;3.80;;;2.80;;
15110;SDS011;7656;51.954;7.998;2023-03-17T04:19:18;4.23;;;2.93;;
15110;SDS011;7656;51.954;7.998;2023-03-17T04:23:40;3.93;;;2.87;;
15110;SDS011;7656;51.954;7.998;2023-03-17T04:28:01;4.07;;;3.07;;
15110;SDS011;7656;51.954;7.998;2023-03-17T04:32:23;6.83;;;3.47;;
15110;SDS011;7656;51.954;7.998;2023-03-17T04:36:45;4.33;;;2.87;;
15110;SDS011;7656;51.954;7.998;2023-03-17T04:41:07;5.23;;;3.33;;
15110;SDS011;7656;51.954;7.998;2023-03-17T04:45:28;5.23;;;3.13;;
15110;SDS011;7656;51.954;7.998;2023-03-17T04:49:49;4.50;;;2.87;;
15110;SDS011;7656;51.954;7.998;2023-03-17T04:54:11;5.33;;;3.23;;
15110;SDS011;7656;51.954;7.998;2023-03-17T04:58:32;5.03;;;3.20;;
15110;SDS011;7656;51.954;7.998;2023-03-17T05:02:53;2.97;;;2.67;;
15110;SDS011;7656;51.954;7.998;2023-03-17T05:07:14;7.07;;;3.07;;
15110;SDS011;7656;51.954;7.998;2023-03-17T05:11:35;4.67;;;2.80;;
15110;SDS011;7656;51.954;7.998;2023-03-17T05:15:56;3.57;;;3.13;;
15110;SDS011;7656;51.954;7.998;2023-03-17T05:20:18;5.20;;;3.20;;
15110;SDS011;7656;51.954;7.998;2023-03-17T05:24:39;5.90;;;3.00;;
15110;SDS011;7656;51.954;7.998;2023-03-17T05:29:00;4.23;;;2.80;;
15110;SDS011;7656;51.954;7.998;2023-03-17T05:33:22;4.53;;;3.10;;
15110;SDS011;7656;51.954;7.998;2023-03-17T05:37:44;5.37;;;3.30;;
15110;SDS011;7656;51.954;7.998;2023-03-17T05:42:05;4.63;;;3.10;;
15110;SDS011;7656;51.954;7.998;2023-03-17T05:46:27;3.63;;;3.07;;
15110;SDS011;7656;51.954;7.998;2023-03-17T05:50:49;4.40;;;3.20;;
15110;SDS011;7656;51.954;7.998;2023-03-17T05:55:10;5.17;;;3.33;;
15110;SDS011;7656;51.954;7.998;2023-03-17T05:59:31;4.90;;;3.50;;
15110;SDS011;7656;51.954;7.998;2023-03-17T06:03:52;5.73;;;3.80;;
15110;SDS011;7656;51.954;7.998;2023-03-17T06:08:13;3.63;;;3.20;;
15110;SDS011;7656;51.954;7.998;2023-03-17T06:12:34;4.40;;;3.73;;
15110;SDS011;7656;51.954;7.998;2023-03-17T06:16:56;3.97;;;3.17;;
15110;SDS011;7656;51.954;7.998;2023-03-17T06:21:17;6.40;;;3.57;;
15110;SDS011;7656;51.954;7.998;2023-03-17T06:25:38;5.00;;;3.47;;
15110;SDS011;7656;51.954;7.998;2023-03-17T06:29:59;3.90;;;3.50;;
15110;SDS011;7656;51.954;7.998;2023-03-17T06:34:21;3.50;;;3.20;;
15110;SDS011;7656;51.954;7.998;2023-03-17T06:38:43;5.10;;;3.23;;
15110;SDS011;7656;51.954;7.998;2023-03-17T06:43:05;3.30;;;2.97;;
15110;SDS011;7656;51.954;7.998;2023-03-17T06:47:26;5.03;;;3.20;;
15110;SDS011;7656;51.954;7.998;2023-03-17T06:51:47;4.33;;;3.47;;
15110;SDS011;7656;51.954;7.998;2023-03-17T06:56:09;3.63;;;3.27;;
15110;SDS011;7656;51.954;7.998;2023-03-17T07:00:30;6.47;;;3.47;;
15110;SDS011;7656;51.954;7.998;2023-03-17T07:04:52;9.83;;;3.97;;
15110;SDS011;7656;51.954;7.998;2023-03-17T07:09:13;4.20;;;3.30;;
15110;SDS011;7656;51.954;7.998;2023-03-17T07:13:34;3.87;;;3.47;;
15110;SDS011;7656;51.954;7.998;2023-03-17T07:17:58;6.63;;;3.93;;
15110;SDS011;7656;51.954;7.998;2023-03-17T07:22:19;5.00;;;3.53;;
15110;SDS011;7656;51.954;7.998;2023-03-17T07:26:40;6.93;;;3.87;;
15110;SDS011;7656;51.954;7.998;2023-03-17T07:31:02;7.97;;;3.50;;
15110;SDS011;7656;51.954;7.998;2023-03-17T07:35:27;3.57;;;3.20;;
15110;SDS011;7656;51.954;7.998;2023-03-17T07:39:49;3.90;;;3.50;;
15110;SDS011;7656;51.954;7.998;2023-03-17T07:44:10;6.20;;;4.07;;
15110;SDS011;7656;51.954;7.998;2023-03-17T07:48:32;4.10;;;3.50;;
15110;SDS011;7656;51.954;7.998;2023-03-17T07:52:55;6.57;;;3.73;;
15110;SDS011;7656;51.954;7.998;2023-03-17T07:57:17;3.70;;;3.00;;
15110;SDS011;7656;51.954;7.998;2023-03-17T08:01:38;5.77;;;4.63;;
15110;SDS011;7656;51.954;7.998;2023-03-17T08:05:59;3.73;;;3.17;;
15110;SDS011;7656;51.954;7.998;2023-03-17T08:10:20;3.87;;;3.47;;
15110;SDS011;7656;51.954;7.998;2023-03-17T08:14:42;4.57;;;3.40;;
15110;SDS011;7656;51.954;7.998;2023-03-17T08:19:03;3.37;;;3.03;;
15110;SDS011;7656;51.954;7.998;2023-03-17T08:23:25;4.20;;;3.47;;
15110;SDS011;7656;51.954;7.998;2023-03-17T08:27:46;3.40;;;2.97;;
15110;SDS011;7656;51.954;7.998;2023-03-17T08:32:08;3.37;;;2.97;;
15110;SDS011;7656;51.954;7.998;2023-03-17T08:36:29;3.83;;;3.00;;
15110;SDS011;7656;51.954;7.998;2023-03-17T08:40:50;3.50;;;2.90;;
15110;SDS011;7656;51.954;7.998;2023-03-17T08:45:12;3.93;;;3.07;;
15110;SDS011;7656;51.954;7.998;2023-03-17T08:49:34;2.70;;;2.50;;
15110;SDS011;7656;51.954;7.998;2023-03-17T08:53:56;3.00;;;2.73;;
15110;SDS011;7656;51.954;7.998;2023-03-17T08:58:18;5.73;;;2.70;;
15110;SDS011;7656;51.954;7.998;2023-03-17T09:02:40;2.73;;;2.40;;
15110;SDS011;7656;51.954;7.998;2023-03-17T09:07:02;5.00;;;2.87;;
15110;SDS011;7656;51.954;7.998;2023-03-17T09:11:26;2.80;;;2.40;;
15110;SDS011;7656;51.954;7.998;2023-03-17T09:15:50;2.40;;;2.20;;
15110;SDS011;7656;51.954;7.998;2023-03-17T09:20:12;3.08;;;2.17;;
15110;SDS011;7656;51.954;7.998;2023-03-17T09:24:34;2.22;;;2.03;;
15110;SDS011;7656;51.954;7.998;2023-03-17T09:28:55;2.13;;;1.83;;
15110;SDS011;7656;51.954;7.998;2023-03-17T09:33:17;2.92;;;2.20;;
15110;SDS011;7656;51.954;7.998;2023-03-17T09:37:38;3.15;;;1.95;;
15110;SDS011;7656;51.954;7.998;2023-03-17T09:42:07;3.07;;;1.87;;
15110;SDS011;7656;51.954;7.998;2023-03-17T09:46:49;4.03;;;1.88;;
15110;SDS011;7656;51.954;7.998;2023-03-17T09:51:33;3.38;;;2.00;;
15110;SDS011;7656;51.954;7.998;2023-03-17T09:55:56;3.13;;;2.10;;
15110;SDS011;7656;51.954;7.998;2023-03-17T10:00:19;7.20;;;2.20;;
15110;SDS011;7656;51.954;7.998;2023-03-17T10:04:46;2.25;;;1.98;;
15110;SDS011;7656;51.954;7.998;2023-03-17T10:09:24;5.50;;;2.40;;
15110;SDS011;7656;51.954;7.998;2023-03-17T10:14:08;2.42;;;1.95;;
15110;SDS011;7656;51.954;7.998;2023-03-17T10:18:48;2.15;;;1.95;;
15110;SDS011;7656;51.954;7.998;2023-03-17T10:23:16;3.50;;;2.28;;
15110;SDS011;7656;51.954;7.998;2023-03-17T10:27:41;3.95;;;2.65;;
15110;SDS011;7656;51.954;7.998;2023-03-17T10:32:06;2.47;;;2.28;;
15110;SDS011;7656;51.954;7.998;2023-03-17T10:36:33;4.22;;;2.08;;
15110;SDS011;7656;51.954;7.998;2023-03-17T10:40:58;3.50;;;2.50;;
15110;SDS011;7656;51.954;7.998;2023-03-17T10:45:27;2.40;;;2.20;;
15110;SDS011;7656;51.954;7.998;2023-03-17T10:49:51;2.58;;;2.17;;
15110;SDS011;7656;51.954;7.998;2023-03-17T10:54:16;2.88;;;2.17;;
15110;SDS011;7656;51.954;7.998;2023-03-17T10:58:42;3.25;;;1.83;;
15110;SDS011;7656;51.954;7.998;2023-03-17T11:03:27;2.70;;;2.22;;
15110;SDS011;7656;51.954;7.998;2023-03-17T11:07:55;2.47;;;2.15;;
15110;SDS011;7656;51.954;7.998;2023-03-17T11:12:34;2.38;;;2.15;;
15110;SDS011;7656;51.954;7.998;2023-03-17T11:17:03;2.10;;;1.92;;
15110;SDS011;7656;51.954;7.998;2023-03-17T11:21:41;4.25;;;2.22;;
15110;SDS011;7656;51.954;7.998;2023-03-17T11:49:37;4.20;;;2.50;;
15110;SDS011;7656;51.954;7.998;2023-03-17T11:58:45;2.90;;;2.25;;
15110;SDS011;7656;51.954;7.998;2023-03-17T12:07:44;2.85;;;2.40;;
15110;SDS011;7656;51.954;7.998;2023-03-17T12:12:13;3.95;;;2.20;;
15110;SDS011;7656;51.954;7.998;2023-03-17T12:16:40;4.13;;;2.45;;
15110;SDS011;7656;51.954;7.998;2023-03-17T12:25:48;2.70;;;2.15;;
15110;SDS011;7656;51.954;7.998;2023-03-17T12:30:29;4.20;;;1.80;;
15110;SDS011;7656;51.954;7.998;2023-03-17T12:40:06;3.15;;;2.08;;
15110;SDS011;7656;51.954;7.998;2023-03-17T12:49:36;2.67;;;2.38;;
15110;SDS011;7656;51.954;7.998;2023-03-17T12:54:28;2.95;;;2.00;;
15110;SDS011;7656;51.954;7.998;2023-03-17T12:58:52;3.08;;;1.92;;
15110;SDS011;7656;51.954;7.998;2023-03-17T13:03:28;2.23;;;1.87;;
15110;SDS011;7656;51.954;7.998;2023-03-17T13:07:54;4.37;;;2.50;;
15110;SDS011;7656;51.954;7.998;2023-03-17T13:17:03;5.05;;;2.30;;
15110;SDS011;7656;51.954;7.998;2023-03-17T13:21:51;3.17;;;2.33;;
15110;SDS011;7656;51.954;7.998;2023-03-17T13:26:20;2.83;;;1.90;;
15110;SDS011;7656;51.954;7.998;2023-03-17T13:40:47;4.60;;;2.10;;
15110;SDS011;7656;51.954;7.998;2023-03-17T13:45:47;2.28;;;1.92;;
15110;SDS011;7656;51.954;7.998;2023-03-17T13:50:13;2.83;;;2.00;;
15110;SDS011;7656;51.954;7.998;2023-03-17T13:54:48;1.83;;;1.60;;
15110;SDS011;7656;51.954;7.998;2023-03-17T13:59:23;3.57;;;1.90;;
15110;SDS011;7656;51.954;7.998;2023-03-17T14:04:20;4.50;;;2.00;;
15110;SDS011;7656;51.954;7.998;2023-03-17T14:08:47;2.40;;;1.57;;
15110;SDS011;7656;51.954;7.998;2023-03-17T14:13:16;3.13;;;2.03;;
15110;SDS011;7656;51.954;7.998;2023-03-17T14:17:50;2.13;;;1.93;;
15110;SDS011;7656;51.954;7.998;2023-03-17T14:22:42;2.80;;;2.13;;
15110;SDS011;7656;51.954;7.998;2023-03-17T14:27:12;3.23;;;1.60;;
15110;SDS011;7656;51.954;7.998;2023-03-17T14:31:34;2.47;;;1.70;;
15110;SDS011;7656;51.954;7.998;2023-03-17T14:35:56;2.20;;;1.60;;
15110;SDS011;7656;51.954;7.998;2023-03-17T14:40:21;2.63;;;1.90;;
15110;SDS011;7656;51.954;7.998;2023-03-17T14:44:48;2.90;;;1.70;;
15110;SDS011;7656;51.954;7.998;2023-03-17T14:49:25;2.37;;;1.50;;
15110;SDS011;7656;51.954;7.998;2023-03-17T14:53:48;2.27;;;1.80;;
15110;SDS011;7656;51.954;7.998;2023-03-17T14:58:23;3.40;;;1.80;;
15110;SDS011;7656;51.954;7.998;2023-03-17T15:02:55;1.93;;;1.83;;
15110;SDS011;7656;51.954;7.998;2023-03-17T15:07:36;1.90;;;1.67;;
15110;SDS011;7656;51.954;7.998;2023-03-17T15:12:03;6.37;;;1.90;;
15110;SDS011;7656;51.954;7.998;2023-03-17T15:16:32;2.63;;;1.70;;
15110;SDS011;7656;51.954;7.998;2023-03-17T15:20:55;1.93;;;1.77;;
15110;SDS011;7656;51.954;7.998;2023-03-17T15:29:58;1.73;;;1.63;;
15110;SDS011;7656;51.954;7.998;2023-03-17T15:34:19;4.17;;;1.80;;
15110;SDS011;7656;51.954;7.998;2023-03-17T15:38:40;3.30;;;1.87;;
15110;SDS011;7656;51.954;7.998;2023-03-17T15:43:01;2.40;;;1.63;;
15110;SDS011;7656;51.954;7.998;2023-03-17T15:47:23;2.20;;;1.67;;
15110;SDS011;7656;51.954;7.998;2023-03-17T15:51:47;2.03;;;1.47;;
15110;SDS011;7656;51.954;7.998;2023-03-17T15:56:15;1.60;;;1.50;;
15110;SDS011;7656;51.954;7.998;2023-03-17T16:00:39;1.93;;;1.53;;
15110;SDS011;7656;51.954;7.998;2023-03-17T16:05:06;3.73;;;1.87;;
15110;SDS011;7656;51.954;7.998;2023-03-17T16:09:51;1.90;;;1.80;;
15110;SDS011;7656;51.954;7.998;2023-03-17T16:14:12;3.97;;;1.80;;
15110;SDS011;7656;51.954;7.998;2023-03-17T16:18:33;2.97;;;1.60;;
15110;SDS011;7656;51.954;7.998;2023-03-17T16:22:57;1.87;;;1.77;;
15110;SDS011;7656;51.954;7.998;2023-03-17T16:27:26;1.80;;;1.70;;
15110;SDS011;7656;51.954;7.998;2023-03-17T16:31:48;2.87;;;1.70;;
15110;SDS011;7656;51.954;7.998;2023-03-17T16:36:14;3.10;;;1.57;;
15110;SDS011;7656;51.954;7.998;2023-03-17T16:40:37;1.67;;;1.57;;
15110;SDS011;7656;51.954;7.998;2023-03-17T16:45:00;8.47;;;2.00;;
15110;SDS011;7656;51.954;7.998;2023-03-17T16:49:21;2.80;;;1.53;;
15110;SDS011;7656;51.954;7.998;2023-03-17T16:53:42;2.80;;;1.50;;
15110;SDS011;7656;51.954;7.998;2023-03-17T16:58:06;3.27;;;1.80;;
15110;SDS011;7656;51.954;7.998;2023-03-17T17:02:54;2.63;;;2.30;;
15110;SDS011;7656;51.954;7.998;2023-03-17T17:07:15;1.93;;;1.70;;
15110;SDS011;7656;51.954;7.998;2023-03-17T17:11:36;3.23;;;2.03;;
15110;SDS011;7656;51.954;7.998;2023-03-17T17:15:58;5.43;;;2.00;;
15110;SDS011;7656;51.954;7.998;2023-03-17T17:20:21;2.60;;;1.60;;
15110;SDS011;7656;51.954;7.998;2023-03-17T17:24:55;3.03;;;1.70;;
15110;SDS011;7656;51.954;7.998;2023-03-17T17:29:16;3.87;;;1.80;;
15110;SDS011;7656;51.954;7.998;2023-03-17T17:33:37;3.60;;;2.10;;
15110;SDS011;7656;51.954;7.998;2023-03-17T17:38:00;1.97;;;1.83;;
15110;SDS011;7656;51.954;7.998;2023-03-17T17:42:21;2.53;;;2.27;;
15110;SDS011;7656;51.954;7.998;2023-03-17T17:46:43;4.47;;;1.93;;
15110;SDS011;7656;51.954;7.998;2023-03-17T17:51:04;2.97;;;2.27;;
15110;SDS011;7656;51.954;7.998;2023-03-17T17:55:25;2.73;;;1.57;;
15110;SDS011;7656;51.954;7.998;2023-03-17T17:59:46;2.33;;;1.47;;
15110;SDS011;7656;51.954;7.998;2023-03-17T18:04:07;3.37;;;2.00;;
15110;SDS011;7656;51.954;7.998;2023-03-17T18:08:32;2.50;;;1.90;;
15110;SDS011;7656;51.954;7.998;2023-03-17T18:12:53;1.97;;;1.83;;
15110;SDS011;7656;51.954;7.998;2023-03-17T18:17:15;1.83;;;1.70;;
15110;SDS011;7656;51.954;7.998;2023-03-17T18:21:41;2.60;;;1.90;;
15110;SDS011;7656;51.954;7.998;2023-03-17T18:26:03;4.77;;;2.23;;
15110;SDS011;7656;51.954;7.998;2023-03-17T18:30:29;5.40;;;3.10;;
15110;SDS011;7656;51.954;7.998;2023-03-17T18:34:53;5.47;;;3.17;;
15110;SDS011;7656;51.954;7.998;2023-03-17T18:39:17;2.73;;;2.10;;
15110;SDS011;7656;51.954;7.998;2023-03-17T18:43:38;3.40;;;1.80;;
15110;SDS011;7656;51.954;7.998;2023-03-17T18:48:04;3.33;;;2.30;;
15110;SDS011;7656;51.954;7.998;2023-03-17T18:52:29;4.53;;;2.13;;
15110;SDS011;7656;51.954;7.998;2023-03-17T18:56:55;2.53;;;2.00;;
15110;SDS011;7656;51.954;7.998;2023-03-17T19:01:17;3.03;;;1.80;;
15110;SDS011;7656;51.954;7.998;2023-03-17T19:05:38;2.20;;;1.60;;
15110;SDS011;7656;51.954;7.998;2023-03-17T19:10:00;1.63;;;1.40;;
15110;SDS011;7656;51.954;7.998;2023-03-17T19:14:21;4.20;;;1.80;;
15110;SDS011;7656;51.954;7.998;2023-03-17T19:18:42;2.93;;;1.93;;
15110;SDS011;7656;51.954;7.998;2023-03-17T19:23:04;2.13;;;1.80;;
15110;SDS011;7656;51.954;7.998;2023-03-17T19:27:26;1.47;;;1.37;;
15110;SDS011;7656;51.954;7.998;2023-03-17T19:31:47;2.70;;;1.90;;
15110;SDS011;7656;51.954;7.998;2023-03-17T19:36:09;3.20;;;1.90;;
15110;SDS011;7656;51.954;7.998;2023-03-17T19:40:32;2.93;;;2.37;;
15110;SDS011;7656;51.954;7.998;2023-03-17T19:44:57;3.47;;;2.20;;
15110;SDS011;7656;51.954;7.998;2023-03-17T19:49:18;2.73;;;1.70;;
15110;SDS011;7656;51.954;7.998;2023-03-17T19:53:40;3.60;;;1.87;;
15110;SDS011;7656;51.954;7.998;2023-03-17T19:58:01;3.50;;;1.80;;
15110;SDS011;7656;51.954;7.998;2023-03-17T20:02:25;5.83;;;2.20;;
15110;SDS011;7656;51.954;7.998;2023-03-17T20:06:46;3.87;;;2.20;;
15110;SDS011;7656;51.954;7.998;2023-03-17T20:11:14;3.60;;;2.30;;
15110;SDS011;7656;51.954;7.998;2023-03-17T20:15:35;3.10;;;2.60;;
15110;SDS011;7656;51.954;7.998;2023-03-17T20:19:57;11.07;;;9.43;;
15110;SDS011;7656;51.954;7.998;2023-03-17T20:24:18;14.97;;;12.03;;
15110;SDS011;7656;51.954;7.998;2023-03-17T20:28:39;4.70;;;4.30;;
15110;SDS011;7656;51.954;7.998;2023-03-17T20:33:00;7.80;;;3.60;;
15110;SDS011;7656;51.954;7.998;2023-03-17T20:37:23;4.07;;;3.17;;
15110;SDS011;7656;51.954;7.998;2023-03-17T20:41:47;2.70;;;2.30;;
15110;SDS011;7656;51.954;7.998;2023-03-17T20:46:18;3.43;;;2.43;;
15110;SDS011;7656;51.954;7.998;2023-03-17T20:50:41;3.90;;;3.30;;
15110;SDS011;7656;51.954;7.998;2023-03-17T20:55:09;4.03;;;2.60;;
15110;SDS011;7656;51.954;7.998;2023-03-17T20:59:33;4.37;;;3.23;;
15110;SDS011;7656;51.954;7.998;2023-03-17T21:03:55;5.80;;;3.27;;
15110;SDS011;7656;51.954;7.998;2023-03-17T21:08:16;3.27;;;2.90;;
15110;SDS011;7656;51.954;7.998;2023-03-17T21:12:38;3.20;;;2.77;;
15110;SDS011;7656;51.954;7.998;2023-03-17T21:16:59;2.87;;;2.57;;
15110;SDS011;7656;51.954;7.998;2023-03-17T21:21:21;3.00;;;2.30;;
15110;SDS011;7656;51.954;7.998;2023-03-17T21:25:42;4.20;;;2.27;;
15110;SDS011;7656;51.954;7.998;2023-03-17T21:30:04;6.00;;;2.93;;
15110;SDS011;7656;51.954;7.998;2023-03-17T21:34:29;2.87;;;2.20;;
15110;SDS011;7656;51.954;7.998;2023-03-17T21:38:51;6.23;;;2.60;;
15110;SDS011;7656;51.954;7.998;2023-03-17T21:43:13;4.07;;;2.80;;
15110;SDS011;7656;51.954;7.998;2023-03-17T21:47:34;4.50;;;2.40;;
15110;SDS011;7656;51.954;7.998;2023-03-17T21:51:56;2.40;;;2.10;;
15110;SDS011;7656;51.954;7.998;2023-03-17T21:56:17;3.00;;;2.20;;
15110;SDS011;7656;51.954;7.998;2023-03-17T22:00:40;3.33;;;1.97;;
15110;SDS011;7656;51.954;7.998;2023-03-17T22:05:01;6.97;;;2.40;;
15110;SDS011;7656;51.954;7.998;2023-03-17T22:09:23;5.20;;;2.50;;
15110;SDS011;7656;51.954;7.998;2023-03-17T22:13:45;8.13;;;3.43;;
15110;SDS011;7656;51.954;7.998;2023-03-17T22:18:06;3.30;;;2.30;;
15110;SDS011;7656;51.954;7.998;2023-03-17T22:22:28;3.27;;;2.50;;
15110;SDS011;7656;51.954;7.998;2023-03-17T22:26:50;2.00;;;1.90;;
15110;SDS011;7656;51.954;7.998;2023-03-17T22:31:15;5.80;;;2.47;;
15110;SDS011;7656;51.954;7.998;2023-03-17T22:35:40;2.33;;;2.13;;
15110;SDS011;7656;51.954;7.998;2023-03-17T22:40:01;3.07;;;2.20;;
15110;SDS011;7656;51.954;7.998;2023-03-17T22:44:25;4.20;;;2.57;;
15110;SDS011;7656;51.954;7.998;2023-03-17T22:48:46;5.87;;;2.57;;
15110;SDS011;7656;51.954;7.998;2023-03-17T22:53:08;3.70;;;2.00;;
15110;SDS011;7656;51.954;7.998;2023-03-17T22:57:29;4.93;;;2.37;;
15110;SDS011;7656;51.954;7.998;2023-03-17T23:01:50;2.57;;;1.80;;
15110;SDS011;7656;51.954;7.998;2023-03-17T23:06:12;4.20;;;2.10;;
15110;SDS011;7656;51.954;7.998;2023-03-17T23:10:34;3.33;;;2.33;;
15110;SDS011;7656;51.954;7.998;2023-03-17T23:14:55;3.40;;;2.00;;
15110;SDS011;7656;51.954;7.998;2023-03-17T23:19:16;3.87;;;2.40;;
15110;SDS011;7656;51.954;7.998;2023-03-17T23:23:37;5.57;;;2.53;;
15110;SDS011;7656;51.954;7.998;2023-03-17T23:27:58;3.23;;;2.43;;
15110;SDS011;7656;51.954;7.998;2023-03-17T23:32:20;6.90;;;2.20;;
15110;SDS011;7656;51.954;7.998;2023-03-17T23:36:42;3.03;;;2.23;;
15110;SDS011;7656;51.954;7.998;2023-03-17T23:41:03;3.37;;;2.40;;
15110;SDS011;7656;51.954;7.998;2023-03-17T23:45:24;5.33;;;2.50;;
15110;SDS011;7656;51.954;7.998;2023-03-17T23:49:45;2.87;;;2.50;;
15110;SDS011;7656;51.954;7.998;2023-03-17T23:54:07;2.40;;;2.20;;
15110;SDS011;7656;51.954;7.998;2023-03-17T23:58:28;4.77;;;3.10;;
